createdAt,value
2018-02-04T00:01:02.006Z,1.30
2018-02-04T00:03:30.188Z,1.30
2018-02-04T00:05:58.376Z,1.30
2018-02-04T00:08:26.628Z,1.30
2018-02-04T00:10:54.813Z,1.30
2018-02-04T00:13:23.077Z,1.30
2018-02-04T00:15:51.273Z,1.40
2018-02-04T00:18:19.462Z,1.40
2018-02-04T00:20:48.575Z,1.40
2018-02-04T00:23:17.507Z,1.40
2018-02-04T00:25:46.450Z,1.40
2018-02-04T00:28:14.655Z,1.30
2018-02-04T00:30:42.853Z,1.40
2018-02-04T00:33:11.797Z,1.40
2018-02-04T00:35:39.970Z,1.30
2018-02-04T00:38:08.155Z,1.40
2018-02-04T00:40:36.332Z,1.40
2018-02-04T00:43:04.538Z,1.40
2018-02-04T00:45:33.482Z,1.40
2018-02-04T00:48:01.679Z,1.30
2018-02-04T00:50:29.854Z,1.40
2018-02-04T00:52:58.019Z,1.40
2018-02-04T00:55:26.196Z,1.40
2018-02-04T00:57:54.386Z,1.50
2018-02-04T01:00:22.581Z,1.50
2018-02-04T01:02:50.796Z,1.50
2018-02-04T01:05:18.975Z,1.50
2018-02-04T01:07:47.147Z,1.50
2018-02-04T01:10:15.320Z,1.50
2018-02-04T01:12:43.517Z,1.50
2018-02-04T01:15:11.695Z,1.50
2018-02-04T01:17:39.882Z,1.50
2018-02-04T01:20:08.039Z,1.50
2018-02-04T01:22:36.217Z,1.50
2018-02-04T01:25:04.393Z,1.50
2018-02-04T01:27:32.562Z,1.50
2018-02-04T01:30:00.737Z,1.50
2018-02-04T01:32:28.901Z,1.50
2018-02-04T01:34:57.066Z,1.50
2018-02-04T01:37:25.238Z,1.40
2018-02-04T01:39:53.409Z,1.40
2018-02-04T01:42:21.594Z,1.40
2018-02-04T01:44:49.761Z,1.40
2018-02-04T01:47:17.957Z,1.40
2018-02-04T01:49:46.124Z,1.40
2018-02-04T01:52:14.297Z,1.40
2018-02-04T01:54:42.502Z,1.40
2018-02-04T01:57:10.662Z,1.40
2018-02-04T01:59:38.822Z,1.40
2018-02-04T02:02:06.986Z,1.30
2018-02-04T02:04:35.183Z,1.30
2018-02-04T02:07:03.354Z,1.30
2018-02-04T02:09:32.305Z,1.30
2018-02-04T02:12:00.467Z,1.30
2018-02-04T02:14:29.404Z,1.30
2018-02-04T02:16:57.570Z,1.20
2018-02-04T02:19:25.737Z,1.20
2018-02-04T02:21:53.898Z,1.20
2018-02-04T02:24:22.069Z,1.20
2018-02-04T02:26:50.248Z,1.20
2018-02-04T02:29:18.409Z,1.20
2018-02-04T02:31:47.350Z,1.20
2018-02-04T02:34:15.535Z,1.10
2018-02-04T02:36:43.722Z,1.10
2018-02-04T02:39:11.894Z,1.10
2018-02-04T02:41:40.087Z,1.10
2018-02-04T02:44:09.058Z,1.00
2018-02-04T02:46:37.271Z,0.90
2018-02-04T02:49:05.445Z,1.00
2018-02-04T02:51:33.631Z,1.00
2018-02-04T02:54:01.811Z,0.90
2018-02-04T02:56:29.969Z,0.90
2018-02-04T02:58:58.148Z,0.90
2018-02-04T03:01:26.313Z,0.90
2018-02-04T03:03:54.493Z,0.90
2018-02-04T03:06:22.718Z,0.90
2018-02-04T03:08:50.903Z,0.80
2018-02-04T03:11:19.110Z,0.80
2018-02-04T03:13:48.050Z,0.80
2018-02-04T03:16:16.226Z,0.70
2018-02-04T03:18:44.430Z,0.80
2018-02-04T03:21:12.613Z,0.70
2018-02-04T03:23:40.910Z,0.70
2018-02-04T03:26:09.085Z,0.70
2018-02-04T03:28:37.262Z,0.70
2018-02-04T03:31:06.203Z,0.70
2018-02-04T03:33:34.379Z,0.70
2018-02-04T03:36:02.559Z,0.70
2018-02-04T03:38:30.733Z,0.60
2018-02-04T03:40:58.914Z,0.60
2018-02-04T03:43:27.078Z,0.60
2018-02-04T03:45:55.271Z,0.60
2018-02-04T03:48:23.454Z,0.50
2018-02-04T03:50:52.410Z,0.50
2018-02-04T03:53:21.358Z,0.50
2018-02-04T03:55:49.534Z,0.40
2018-02-04T03:58:17.710Z,0.50
2018-02-04T04:00:45.885Z,0.40
2018-02-04T04:03:14.086Z,0.40
2018-02-04T04:05:42.260Z,0.30
2018-02-04T04:08:10.438Z,0.20
2018-02-04T04:10:38.657Z,0.20
2018-02-04T04:13:06.830Z,0.20
2018-02-04T04:15:35.006Z,0.10
2018-02-04T04:18:03.183Z,0.10
2018-02-04T04:20:31.358Z,0.10
2018-02-04T04:22:59.530Z,0.10
2018-02-04T04:25:27.729Z,0.00
2018-02-04T04:27:55.969Z,0.00
2018-02-04T04:30:24.107Z,0.00
2018-02-04T04:32:52.282Z,-0.10
2018-02-04T04:35:20.471Z,-0.10
2018-02-04T04:37:48.686Z,-0.10
2018-02-04T04:40:17.615Z,-0.20
2018-02-04T04:42:45.787Z,-0.20
2018-02-04T04:45:13.974Z,-0.10
2018-02-04T04:47:42.158Z,-0.10
2018-02-04T04:50:10.349Z,-0.10
2018-02-04T04:52:38.545Z,-0.10
2018-02-04T04:55:06.719Z,-0.10
2018-02-04T04:57:34.921Z,-0.20
2018-02-04T05:00:03.103Z,-0.20
2018-02-04T05:02:31.530Z,-0.20
2018-02-04T05:04:59.713Z,-0.20
2018-02-04T05:07:27.890Z,-0.20
2018-02-04T05:09:56.208Z,-0.20
2018-02-04T05:12:24.404Z,-0.20
2018-02-04T05:14:52.589Z,-0.20
2018-02-04T05:17:20.767Z,-0.20
2018-02-04T05:19:48.978Z,-0.20
2018-02-04T05:22:17.155Z,-0.20
2018-02-04T05:24:46.112Z,-0.20
2018-02-04T05:27:14.362Z,-0.30
2018-02-04T05:29:42.551Z,-0.20
2018-02-04T05:32:10.725Z,-0.20
2018-02-04T05:34:38.945Z,-0.30
2018-02-04T05:37:07.143Z,-0.30
2018-02-04T05:39:36.132Z,-0.30
2018-02-04T05:42:05.085Z,-0.40
2018-02-04T05:44:33.274Z,-0.40
2018-02-04T05:47:01.474Z,-0.40
2018-02-04T05:49:30.431Z,-0.50
2018-02-04T05:51:58.641Z,-0.50
2018-02-04T05:54:27.602Z,-0.40
2018-02-04T05:56:55.772Z,-0.50
2018-02-04T05:59:23.954Z,-0.40
2018-02-04T06:01:52.162Z,-0.40
2018-02-04T06:04:21.109Z,-0.50
2018-02-04T06:06:49.281Z,-0.60
2018-02-04T06:09:17.493Z,-0.60
2018-02-04T06:11:46.453Z,-0.60
2018-02-04T06:14:14.644Z,-0.70
2018-02-04T06:16:42.833Z,-0.60
2018-02-04T06:19:11.778Z,-0.60
2018-02-04T06:21:40.065Z,-0.70
2018-02-04T06:24:08.223Z,-0.70
2018-02-04T06:26:36.415Z,-0.60
2018-02-04T06:29:04.630Z,-0.70
2018-02-04T06:31:33.598Z,-0.60
2018-02-04T06:34:01.800Z,-0.70
2018-02-04T06:36:30.750Z,-0.60
2018-02-04T06:38:58.978Z,-0.60
2018-02-04T06:41:27.913Z,-0.60
2018-02-04T06:43:56.129Z,-0.60
2018-02-04T06:46:24.301Z,-0.50
2018-02-04T06:48:52.510Z,-0.50
2018-02-04T06:51:20.698Z,-0.50
2018-02-04T06:53:48.883Z,-0.50
2018-02-04T06:56:17.063Z,-0.40
2018-02-04T06:58:45.266Z,-0.40
2018-02-04T07:01:13.445Z,-0.30
2018-02-04T07:03:41.632Z,-0.30
2018-02-04T07:06:10.630Z,0.00
2018-02-04T07:08:39.594Z,0.10
2018-02-04T07:11:07.759Z,0.10
2018-02-04T07:13:35.933Z,0.30
2018-02-04T07:16:04.152Z,0.40
2018-02-04T07:18:33.141Z,0.70
2018-02-04T07:21:02.128Z,0.80
2018-02-04T07:23:31.101Z,0.90
2018-02-04T07:25:59.503Z,0.80
2018-02-04T07:28:28.457Z,1.10
2018-02-04T07:30:56.633Z,1.00
2018-02-04T07:33:24.808Z,1.20
2018-02-04T07:35:52.977Z,1.20
2018-02-04T07:38:21.149Z,1.20
2018-02-04T07:40:49.350Z,1.30
2018-02-04T07:43:17.569Z,1.30
2018-02-04T07:45:45.746Z,1.40
2018-02-04T07:48:13.954Z,1.40
2018-02-04T07:50:42.888Z,1.40
2018-02-04T07:53:11.830Z,1.40
2018-02-04T07:55:40.005Z,1.30
2018-02-04T07:58:08.186Z,1.40
2018-02-04T08:00:36.381Z,1.30
2018-02-04T08:03:04.570Z,1.30
2018-02-04T08:05:32.765Z,1.20
2018-02-04T08:08:00.971Z,1.30
2018-02-04T08:10:29.148Z,1.30
2018-02-04T08:12:57.323Z,1.40
2018-02-04T08:15:25.511Z,1.30
2018-02-04T08:17:53.682Z,1.20
2018-02-04T08:20:21.857Z,1.10
2018-02-04T08:22:50.038Z,1.10
2018-02-04T08:25:18.217Z,1.00
2018-02-04T08:27:46.404Z,1.00
2018-02-04T08:30:14.569Z,1.00
2018-02-04T08:32:42.738Z,1.10
2018-02-04T08:35:10.921Z,1.10
2018-02-04T08:37:39.978Z,1.10
2018-02-04T08:40:08.153Z,1.10
2018-02-04T08:42:36.318Z,1.20
2018-02-04T08:45:04.499Z,1.30
2018-02-04T08:47:32.670Z,1.30
2018-02-04T08:50:00.842Z,1.40
2018-02-04T08:52:29.052Z,1.60
2018-02-04T08:54:57.241Z,1.80
2018-02-04T08:57:25.405Z,1.90
2018-02-04T08:59:53.596Z,2.00
2018-02-04T09:02:21.761Z,2.00
2018-02-04T09:04:49.965Z,2.10
2018-02-04T09:07:18.966Z,2.30
2018-02-04T09:09:47.894Z,2.40
2018-02-04T09:12:16.065Z,2.30
2018-02-04T09:14:44.244Z,2.50
2018-02-04T09:17:12.433Z,2.60
2018-02-04T09:19:41.364Z,2.70
2018-02-04T09:22:09.597Z,2.60
2018-02-04T09:24:37.778Z,2.70
2018-02-04T09:27:05.946Z,2.60
2018-02-04T09:29:34.121Z,2.70
2018-02-04T09:32:02.293Z,2.80
2018-02-04T09:34:30.481Z,3.10
2018-02-04T09:36:58.653Z,3.40
2018-02-04T09:39:26.868Z,3.60
2018-02-04T09:41:55.805Z,3.90
2018-02-04T09:44:23.965Z,3.80
2018-02-04T09:46:52.127Z,4.00
2018-02-04T09:49:21.081Z,4.30
2018-02-04T09:51:49.253Z,4.30
2018-02-04T09:54:17.429Z,4.50
2018-02-04T09:56:45.597Z,4.70
2018-02-04T09:59:13.764Z,5.00
2018-02-04T10:01:41.929Z,5.30
2018-02-04T10:04:10.101Z,5.50
2018-02-04T10:06:38.275Z,5.70
2018-02-04T10:09:06.496Z,5.70
2018-02-04T10:11:35.457Z,5.90
2018-02-04T10:14:03.630Z,5.90
2018-02-04T10:16:31.820Z,6.10
2018-02-04T10:19:00.008Z,6.10
2018-02-04T10:21:28.947Z,6.40
2018-02-04T10:23:57.119Z,6.30
2018-02-04T10:26:25.385Z,6.50
2018-02-04T10:28:53.628Z,6.70
2018-02-04T10:31:22.673Z,7.20
2018-02-04T10:33:50.854Z,7.20
2018-02-04T10:36:19.091Z,7.70
2018-02-04T10:38:48.022Z,8.70
2018-02-04T10:41:16.200Z,8.60
2018-02-04T10:43:44.390Z,9.10
2018-02-04T10:46:12.581Z,9.40
2018-02-04T10:48:40.772Z,9.50
2018-02-04T10:51:15.198Z,9.80
2018-02-04T10:53:44.171Z,10.10
2018-02-04T10:56:12.354Z,10.10
2018-02-04T10:58:40.529Z,10.40
2018-02-04T11:01:08.729Z,10.60
2018-02-04T11:03:37.690Z,11.30
2018-02-04T11:06:05.875Z,11.20
2018-02-04T11:08:34.831Z,11.70
2018-02-04T11:11:03.016Z,11.60
2018-02-04T11:13:31.963Z,12.40
2018-02-04T11:16:00.153Z,12.30
2018-02-04T11:18:28.323Z,13.30
2018-02-04T11:20:56.490Z,14.80
2018-02-04T11:23:24.663Z,17.00
2018-02-04T11:25:52.862Z,19.60
2018-02-04T11:28:21.041Z,21.70
2018-02-04T11:30:49.219Z,24.20
2018-02-04T11:33:17.414Z,25.50
2018-02-04T11:35:45.593Z,26.80
2018-02-04T11:38:13.770Z,28.10
2018-02-04T11:40:41.970Z,28.60
2018-02-04T11:43:10.922Z,29.80
2018-02-04T11:45:39.100Z,29.70
2018-02-04T11:48:07.293Z,30.30
2018-02-04T11:50:35.498Z,30.60
2018-02-04T11:53:04.295Z,30.70
2018-02-04T11:55:32.481Z,29.90
2018-02-04T11:58:00.683Z,29.70
2018-02-04T12:00:28.881Z,29.30
2018-02-04T12:02:57.054Z,28.80
2018-02-04T12:05:25.235Z,29.20
2018-02-04T12:07:54.196Z,30.50
2018-02-04T12:10:22.389Z,30.40
2018-02-04T12:12:50.601Z,31.20
2018-02-04T12:15:19.586Z,31.30
2018-02-04T12:17:48.542Z,31.30
2018-02-04T12:20:16.710Z,31.30
2018-02-04T12:22:44.901Z,31.70
2018-02-04T12:25:13.847Z,31.60
2018-02-04T12:27:42.016Z,31.50
2018-02-04T12:30:10.202Z,31.00
2018-02-04T12:32:38.388Z,29.90
2018-02-04T12:35:06.562Z,27.70
2018-02-04T12:37:35.819Z,22.70
2018-02-04T12:40:04.774Z,17.80
2018-02-04T12:42:33.742Z,16.90
2018-02-04T12:45:01.940Z,16.70
2018-02-04T12:47:30.110Z,15.50
2018-02-04T12:49:58.290Z,14.20
2018-02-04T12:52:26.489Z,13.00
2018-02-04T12:54:55.433Z,10.90
2018-02-04T12:57:23.601Z,10.70
2018-02-04T12:59:51.782Z,10.10
2018-02-04T13:02:20.191Z,9.40
2018-02-04T13:04:48.469Z,9.10
2018-02-04T13:07:16.654Z,8.70
2018-02-04T13:09:44.831Z,8.60
2018-02-04T13:12:13.014Z,8.40
2018-02-04T13:14:41.950Z,7.90
2018-02-04T13:17:10.137Z,7.80
2018-02-04T13:19:38.310Z,7.80
2018-02-04T13:22:06.467Z,7.90
2018-02-04T13:24:34.619Z,8.00
2018-02-04T13:27:02.802Z,7.90
2018-02-04T13:29:30.968Z,7.80
2018-02-04T13:31:59.917Z,8.10
2018-02-04T13:34:28.103Z,8.00
2018-02-04T13:36:56.290Z,8.20
2018-02-04T13:39:24.502Z,8.40
2018-02-04T13:41:52.690Z,8.50
2018-02-04T13:44:20.864Z,8.30
2018-02-04T13:46:49.043Z,8.10
2018-02-04T13:49:17.244Z,7.80
2018-02-04T13:51:45.417Z,7.70
2018-02-04T13:54:13.595Z,7.60
2018-02-04T13:56:41.775Z,7.90
2018-02-04T13:59:09.961Z,8.30
2018-02-04T14:01:38.136Z,8.30
2018-02-04T14:04:06.308Z,8.70
2018-02-04T14:06:34.498Z,8.90
2018-02-04T14:09:03.502Z,8.90
2018-02-04T14:11:32.429Z,8.60
2018-02-04T14:14:00.595Z,8.60
2018-02-04T14:16:28.775Z,8.50
2018-02-04T14:18:56.974Z,8.50
2018-02-04T14:21:25.150Z,8.60
2018-02-04T14:23:53.308Z,8.60
2018-02-04T14:26:21.499Z,8.50
2018-02-04T14:28:49.718Z,8.30
2018-02-04T14:31:18.633Z,7.90
2018-02-04T14:33:46.818Z,7.80
2018-02-04T14:36:14.999Z,7.80
2018-02-04T14:38:43.173Z,7.40
2018-02-04T14:41:11.394Z,7.20
2018-02-04T14:43:39.616Z,7.10
2018-02-04T14:46:07.786Z,6.90
2018-02-04T14:48:35.957Z,6.80
2018-02-04T14:51:04.174Z,6.70
2018-02-04T14:53:32.359Z,6.60
2018-02-04T14:56:00.532Z,6.40
2018-02-04T14:58:28.712Z,6.20
2018-02-04T15:00:56.935Z,6.10
2018-02-04T15:03:25.102Z,5.90
2018-02-04T15:05:53.271Z,5.90
2018-02-04T15:08:21.451Z,5.80
2018-02-04T15:10:50.389Z,5.70
2018-02-04T15:13:18.557Z,5.60
2018-02-04T15:15:46.810Z,5.60
2018-02-04T15:18:14.989Z,5.60
2018-02-04T15:20:43.162Z,5.50
2018-02-04T15:23:11.357Z,5.50
2018-02-04T15:25:39.567Z,5.50
2018-02-04T15:28:08.514Z,5.50
2018-02-04T15:30:36.706Z,5.50
2018-02-04T15:33:04.885Z,5.50
2018-02-04T15:35:33.104Z,5.50
2018-02-04T15:38:01.285Z,5.50
2018-02-04T15:40:29.479Z,5.40
2018-02-04T15:42:57.638Z,5.40
2018-02-04T15:45:25.802Z,5.30
2018-02-04T15:47:53.998Z,5.20
2018-02-04T15:50:22.161Z,5.10
2018-02-04T15:52:50.325Z,5.00
2018-02-04T15:55:18.529Z,5.00
2018-02-04T15:57:46.759Z,4.90
2018-02-04T16:00:15.692Z,4.90
2018-02-04T16:02:43.873Z,4.80
2018-02-04T16:05:12.831Z,4.80
2018-02-04T16:07:41.019Z,4.70
2018-02-04T16:10:09.198Z,4.70
2018-02-04T16:12:37.398Z,4.60
2018-02-04T16:15:05.578Z,4.50
2018-02-04T16:17:33.745Z,4.40
2018-02-04T16:20:01.928Z,4.30
2018-02-04T16:22:30.107Z,4.20
2018-02-04T16:24:58.287Z,4.20
2018-02-04T16:27:26.471Z,4.10
2018-02-04T16:29:54.656Z,4.10
2018-02-04T16:32:23.605Z,4.00
2018-02-04T16:34:51.876Z,3.90
2018-02-04T16:37:20.095Z,3.90
2018-02-04T16:39:49.054Z,3.80
2018-02-04T16:42:17.262Z,3.70
2018-02-04T16:44:45.440Z,3.80
2018-02-04T16:47:14.441Z,3.70
2018-02-04T16:49:43.382Z,3.70
2018-02-04T16:52:11.582Z,3.60
2018-02-04T16:54:39.791Z,3.60
2018-02-04T16:57:08.767Z,3.50
2018-02-04T16:59:36.935Z,3.50
2018-02-04T17:02:05.126Z,3.50
2018-02-04T17:04:34.060Z,3.40
2018-02-04T17:07:02.338Z,3.30
2018-02-04T17:09:30.522Z,3.30
2018-02-04T17:11:58.714Z,3.30
2018-02-04T17:14:26.901Z,3.30
2018-02-04T17:16:55.084Z,3.30
2018-02-04T17:19:23.304Z,3.20
2018-02-04T17:21:51.507Z,3.10
2018-02-04T17:24:19.735Z,3.10
2018-02-04T17:26:47.917Z,3.00
2018-02-04T17:29:16.119Z,3.00
2018-02-04T17:31:44.312Z,3.00
2018-02-04T17:34:13.252Z,2.90
2018-02-04T17:36:41.444Z,2.90
2018-02-04T17:39:09.641Z,2.90
2018-02-04T17:41:37.836Z,2.80
2018-02-04T17:44:06.055Z,2.80
2018-02-04T17:46:34.250Z,2.70
2018-02-04T17:49:02.449Z,2.70
2018-02-04T17:51:30.672Z,2.70
2018-02-04T17:53:59.712Z,2.60
2018-02-04T17:56:28.023Z,2.50
2018-02-04T17:58:56.222Z,2.60
2018-02-04T18:01:24.535Z,2.50
2018-02-04T18:03:52.789Z,2.50
2018-02-04T18:06:21.060Z,2.50
2018-02-04T18:08:49.245Z,2.40
2018-02-04T18:11:17.458Z,2.30
2018-02-04T18:13:45.649Z,2.30
2018-02-04T18:16:13.833Z,2.20
2018-02-04T18:18:42.808Z,2.20
2018-02-04T18:21:11.001Z,2.10
2018-02-04T18:23:39.943Z,2.10
2018-02-04T18:26:08.165Z,2.00
2018-02-04T18:28:37.138Z,2.10
2018-02-04T18:31:05.318Z,2.00
2018-02-04T18:33:33.534Z,2.10
2018-02-04T18:36:01.771Z,2.00
2018-02-04T18:38:30.032Z,2.00
2018-02-04T18:40:58.331Z,2.00
2018-02-04T18:43:26.600Z,2.00
2018-02-04T18:45:54.794Z,2.00
2018-02-04T18:48:23.857Z,1.90
2018-02-04T18:50:52.046Z,1.80
2018-02-04T18:53:20.245Z,1.90
2018-02-04T18:55:49.225Z,1.80
2018-02-04T18:58:17.412Z,1.80
2018-02-04T19:00:46.403Z,1.80
2018-02-04T19:03:15.367Z,1.80
2018-02-04T19:05:43.582Z,1.70
2018-02-04T19:08:12.551Z,1.70
2018-02-04T19:10:40.741Z,1.70
2018-02-04T19:13:09.705Z,1.70
2018-02-04T19:15:37.957Z,1.60
2018-02-04T19:18:06.141Z,1.70
2018-02-04T19:20:34.319Z,1.70
2018-02-04T19:23:02.491Z,1.70
2018-02-04T19:25:30.690Z,1.60
2018-02-04T19:27:58.926Z,1.60
2018-02-04T19:30:27.101Z,1.60
2018-02-04T19:32:55.319Z,1.60
2018-02-04T19:35:23.518Z,1.50
2018-02-04T19:37:52.518Z,1.50
2018-02-04T19:40:21.475Z,1.50
2018-02-04T19:42:49.659Z,1.40
2018-02-04T19:45:17.841Z,1.50
2018-02-04T19:47:46.022Z,1.50
2018-02-04T19:50:15.034Z,1.40
2018-02-04T19:52:43.243Z,1.40
2018-02-04T19:55:11.431Z,1.40
2018-02-04T19:57:39.607Z,1.40
2018-02-04T20:00:07.807Z,1.30
2018-02-04T20:02:35.995Z,1.30
2018-02-04T20:05:04.969Z,1.30
2018-02-04T20:07:33.199Z,1.20
2018-02-04T21:31:59.843Z,1.10
2018-02-04T21:34:28.031Z,0.50
2018-02-04T21:36:56.979Z,0.40
2018-02-04T21:39:25.178Z,0.40
2018-02-04T21:41:53.354Z,0.40
2018-02-04T21:44:21.533Z,0.50
2018-02-04T21:46:49.743Z,0.50
2018-02-04T21:49:17.927Z,0.50
2018-02-04T21:51:46.116Z,0.40
2018-02-04T21:54:14.297Z,0.40
2018-02-04T21:56:42.488Z,0.40
2018-02-04T21:59:10.698Z,0.40
2018-02-04T22:01:39.659Z,0.30
2018-02-04T22:04:07.858Z,0.20
2018-02-04T22:06:36.035Z,0.30
2018-02-04T22:09:04.274Z,0.30
2018-02-04T22:11:32.457Z,0.20
2018-02-04T22:14:00.649Z,0.20
2018-02-04T22:16:28.844Z,0.20
2018-02-04T22:18:57.817Z,0.20
2018-02-04T22:21:26.015Z,0.20
2018-02-04T22:23:54.966Z,0.20
2018-02-04T22:26:23.149Z,0.20
2018-02-04T22:28:51.352Z,0.20
2018-02-04T22:31:20.318Z,0.10
2018-02-04T22:33:48.495Z,0.10
2018-02-04T22:36:16.674Z,0.10
2018-02-04T22:38:44.870Z,0.10
2018-02-04T22:41:13.833Z,0.00
2018-02-04T22:43:42.010Z,-0.10
2018-02-04T22:46:10.191Z,0.00
2018-02-04T22:48:38.362Z,0.00
2018-02-04T22:51:06.551Z,-0.10
2018-02-04T22:53:34.746Z,-0.10
2018-02-04T22:56:03.697Z,-0.10
2018-02-04T22:58:32.648Z,-0.10
2018-02-04T23:01:00.818Z,-0.10
2018-02-04T23:03:29.001Z,0.00
2018-02-04T23:05:57.187Z,0.00
2018-02-04T23:08:25.370Z,0.10
2018-02-04T23:10:53.551Z,0.00
2018-02-04T23:13:21.723Z,0.00
2018-02-04T23:15:49.897Z,0.00
2018-02-04T23:18:18.116Z,0.00
2018-02-04T23:20:46.306Z,-0.10
2018-02-04T23:23:15.253Z,-0.10
2018-02-04T23:25:43.441Z,-0.20
2018-02-04T23:28:11.612Z,-0.10
2018-02-04T23:30:39.806Z,-0.10
2018-02-04T23:33:07.983Z,0.00
2018-02-04T23:35:36.914Z,0.10
2018-02-04T23:38:05.085Z,0.10
2018-02-04T23:40:33.255Z,0.20
2018-02-04T23:43:01.438Z,0.30
2018-02-04T23:45:29.620Z,0.30
2018-02-04T23:47:57.796Z,0.40
2018-02-04T23:50:25.958Z,0.40
2018-02-04T23:52:54.116Z,0.50
2018-02-04T23:55:23.057Z,0.50
2018-02-04T23:57:51.256Z,0.40
